sensor_id;sensor_type;location;lat;lon;timestamp;temperature;humidity
8332;DHT22;4203;48.144;14.118;2023-04-16T00:01:39;5.40;99.90
8332;DHT22;4203;48.144;14.118;2023-04-16T00:04:06;5.40;99.90
8332;DHT22;4203;48.144;14.118;2023-04-16T00:06:33;5.50;99.90
8332;DHT22;4203;48.144;14.118;2023-04-16T00:09:02;5.50;99.90
8332;DHT22;4203;48.144;14.118;2023-04-16T00:11:30;5.50;99.90
8332;DHT22;4203;48.144;14.118;2023-04-16T00:13:58;5.50;99.90
8332;DHT22;4203;48.144;14.118;2023-04-16T00:16:25;5.50;99.90
8332;DHT22;4203;48.144;14.118;2023-04-16T00:18:52;5.50;99.90
8332;DHT22;4203;48.144;14.118;2023-04-16T00:21:20;5.50;99.90
8332;DHT22;4203;48.144;14.118;2023-04-16T00:23:47;5.50;99.90
8332;DHT22;4203;48.144;14.118;2023-04-16T00:26:16;5.50;99.90
8332;DHT22;4203;48.144;14.118;2023-04-16T00:28:43;5.60;99.90
8332;DHT22;4203;48.144;14.118;2023-04-16T00:31:10;5.60;99.90
8332;DHT22;4203;48.144;14.118;2023-04-16T00:33:38;5.60;99.90
8332;DHT22;4203;48.144;14.118;2023-04-16T00:36:05;5.60;99.90
8332;DHT22;4203;48.144;14.118;2023-04-16T00:38:33;5.60;99.90
8332;DHT22;4203;48.144;14.118;2023-04-16T00:41:01;5.60;99.90
8332;DHT22;4203;48.144;14.118;2023-04-16T00:43:29;5.60;99.90
8332;DHT22;4203;48.144;14.118;2023-04-16T00:45:57;5.60;99.90
8332;DHT22;4203;48.144;14.118;2023-04-16T00:48:24;5.60;99.90
8332;DHT22;4203;48.144;14.118;2023-04-16T00:50:52;5.60;99.90
8332;DHT22;4203;48.144;14.118;2023-04-16T00:53:21;5.60;99.90
8332;DHT22;4203;48.144;14.118;2023-04-16T00:55:48;5.60;99.90
8332;DHT22;4203;48.144;14.118;2023-04-16T00:58:16;5.60;99.90
8332;DHT22;4203;48.144;14.118;2023-04-16T01:00:50;5.60;99.90
8332;DHT22;4203;48.144;14.118;2023-04-16T01:03:18;5.60;99.90
8332;DHT22;4203;48.144;14.118;2023-04-16T01:05:45;5.50;99.90
8332;DHT22;4203;48.144;14.118;2023-04-16T01:08:15;5.50;99.90
8332;DHT22;4203;48.144;14.118;2023-04-16T01:10:43;5.50;99.90
8332;DHT22;4203;48.144;14.118;2023-04-16T01:13:10;5.50;99.90
8332;DHT22;4203;48.144;14.118;2023-04-16T01:15:37;5.50;99.90
8332;DHT22;4203;48.144;14.118;2023-04-16T01:18:14;5.50;99.90
8332;DHT22;4203;48.144;14.118;2023-04-16T01:20:43;5.50;99.90
8332;DHT22;4203;48.144;14.118;2023-04-16T01:23:10;5.50;99.90
8332;DHT22;4203;48.144;14.118;2023-04-16T01:25:37;5.50;99.90
8332;DHT22;4203;48.144;14.118;2023-04-16T01:28:05;5.50;99.90
8332;DHT22;4203;48.144;14.118;2023-04-16T01:30:34;5.50;99.90
8332;DHT22;4203;48.144;14.118;2023-04-16T01:33:01;5.50;99.90
8332;DHT22;4203;48.144;14.118;2023-04-16T01:35:28;5.50;99.90
8332;DHT22;4203;48.144;14.118;2023-04-16T01:37:57;5.50;99.90
8332;DHT22;4203;48.144;14.118;2023-04-16T01:40:24;5.50;99.90
8332;DHT22;4203;48.144;14.118;2023-04-16T01:42:51;5.50;99.90
8332;DHT22;4203;48.144;14.118;2023-04-16T01:45:18;5.50;99.90
8332;DHT22;4203;48.144;14.118;2023-04-16T01:47:47;5.50;99.90
8332;DHT22;4203;48.144;14.118;2023-04-16T01:50:14;5.50;99.90
8332;DHT22;4203;48.144;14.118;2023-04-16T01:52:42;5.50;99.90
8332;DHT22;4203;48.144;14.118;2023-04-16T01:55:11;5.50;99.90
8332;DHT22;4203;48.144;14.118;2023-04-16T01:57:38;5.60;99.90
8332;DHT22;4203;48.144;14.118;2023-04-16T02:00:07;5.50;99.90
8332;DHT22;4203;48.144;14.118;2023-04-16T02:02:36;5.60;99.90
8332;DHT22;4203;48.144;14.118;2023-04-16T02:05:04;5.60;99.90
8332;DHT22;4203;48.144;14.118;2023-04-16T02:07:31;5.60;99.90
8332;DHT22;4203;48.144;14.118;2023-04-16T02:09:58;5.70;99.90
8332;DHT22;4203;48.144;14.118;2023-04-16T02:12:27;5.70;99.90
8332;DHT22;4203;48.144;14.118;2023-04-16T02:14:54;5.70;99.90
8332;DHT22;4203;48.144;14.118;2023-04-16T02:17:21;5.60;99.90
8332;DHT22;4203;48.144;14.118;2023-04-16T02:19:48;5.60;99.90
8332;DHT22;4203;48.144;14.118;2023-04-16T02:22:16;5.50;99.90
8332;DHT22;4203;48.144;14.118;2023-04-16T02:24:44;5.50;99.90
8332;DHT22;4203;48.144;14.118;2023-04-16T02:27:11;5.50;99.90
8332;DHT22;4203;48.144;14.118;2023-04-16T02:29:39;5.40;99.90
8332;DHT22;4203;48.144;14.118;2023-04-16T02:32:07;5.40;99.90
8332;DHT22;4203;48.144;14.118;2023-04-16T02:34:34;5.40;99.90
8332;DHT22;4203;48.144;14.118;2023-04-16T02:37:01;5.40;99.90
8332;DHT22;4203;48.144;14.118;2023-04-16T02:39:28;5.40;99.90
8332;DHT22;4203;48.144;14.118;2023-04-16T02:41:55;5.40;99.90
8332;DHT22;4203;48.144;14.118;2023-04-16T02:44:24;5.40;99.90
8332;DHT22;4203;48.144;14.118;2023-04-16T02:46:52;5.40;99.90
8332;DHT22;4203;48.144;14.118;2023-04-16T02:49:20;5.40;99.90
8332;DHT22;4203;48.144;14.118;2023-04-16T02:51:47;5.40;99.90
8332;DHT22;4203;48.144;14.118;2023-04-16T02:54:14;5.40;99.90
8332;DHT22;4203;48.144;14.118;2023-04-16T02:56:41;5.30;99.90
8332;DHT22;4203;48.144;14.118;2023-04-16T02:59:08;5.30;99.90
8332;DHT22;4203;48.144;14.118;2023-04-16T03:01:36;5.30;99.90
8332;DHT22;4203;48.144;14.118;2023-04-16T03:04:05;5.30;99.90
8332;DHT22;4203;48.144;14.118;2023-04-16T03:06:32;5.30;99.90
8332;DHT22;4203;48.144;14.118;2023-04-16T03:09:00;5.30;99.90
8332;DHT22;4203;48.144;14.118;2023-04-16T03:11:28;5.30;99.90
8332;DHT22;4203;48.144;14.118;2023-04-16T03:13:55;5.30;99.90
8332;DHT22;4203;48.144;14.118;2023-04-16T03:16:22;5.30;99.90
8332;DHT22;4203;48.144;14.118;2023-04-16T03:18:50;5.30;99.90
8332;DHT22;4203;48.144;14.118;2023-04-16T03:21:19;5.30;99.90
8332;DHT22;4203;48.144;14.118;2023-04-16T03:23:46;5.40;99.90
8332;DHT22;4203;48.144;14.118;2023-04-16T03:26:13;5.30;99.90
8332;DHT22;4203;48.144;14.118;2023-04-16T03:28:40;5.30;99.90
8332;DHT22;4203;48.144;14.118;2023-04-16T03:31:08;5.30;99.90
8332;DHT22;4203;48.144;14.118;2023-04-16T03:33:35;5.30;99.90
8332;DHT22;4203;48.144;14.118;2023-04-16T03:36:06;5.30;99.90
8332;DHT22;4203;48.144;14.118;2023-04-16T03:38:39;5.30;99.90
8332;DHT22;4203;48.144;14.118;2023-04-16T03:41:06;5.30;99.90
8332;DHT22;4203;48.144;14.118;2023-04-16T03:43:33;5.30;99.90
8332;DHT22;4203;48.144;14.118;2023-04-16T03:46:00;5.30;99.90
8332;DHT22;4203;48.144;14.118;2023-04-16T03:48:27;5.30;99.90
8332;DHT22;4203;48.144;14.118;2023-04-16T03:50:55;5.30;99.90
8332;DHT22;4203;48.144;14.118;2023-04-16T03:53:22;5.30;99.90
8332;DHT22;4203;48.144;14.118;2023-04-16T03:55:51;5.30;99.90
8332;DHT22;4203;48.144;14.118;2023-04-16T03:58:18;5.30;99.90
8332;DHT22;4203;48.144;14.118;2023-04-16T04:00:45;5.20;99.90
8332;DHT22;4203;48.144;14.118;2023-04-16T04:03:13;5.20;99.90
8332;DHT22;4203;48.144;14.118;2023-04-16T04:05:42;5.20;99.90
8332;DHT22;4203;48.144;14.118;2023-04-16T04:08:10;5.10;99.90
8332;DHT22;4203;48.144;14.118;2023-04-16T04:10:38;5.10;99.90
8332;DHT22;4203;48.144;14.118;2023-04-16T04:13:07;5.10;99.90
8332;DHT22;4203;48.144;14.118;2023-04-16T04:15:34;5.10;99.90
8332;DHT22;4203;48.144;14.118;2023-04-16T04:18:01;5.10;99.90
8332;DHT22;4203;48.144;14.118;2023-04-16T04:20:28;5.10;99.90
8332;DHT22;4203;48.144;14.118;2023-04-16T04:22:55;5.10;99.90
8332;DHT22;4203;48.144;14.118;2023-04-16T04:25:23;5.10;99.90
8332;DHT22;4203;48.144;14.118;2023-04-16T04:27:50;5.10;99.90
8332;DHT22;4203;48.144;14.118;2023-04-16T04:30:18;5.10;99.90
8332;DHT22;4203;48.144;14.118;2023-04-16T04:32:46;5.10;99.90
8332;DHT22;4203;48.144;14.118;2023-04-16T04:35:13;5.10;99.90
8332;DHT22;4203;48.144;14.118;2023-04-16T04:37:40;5.10;99.90
8332;DHT22;4203;48.144;14.118;2023-04-16T04:40:08;5.00;99.90
8332;DHT22;4203;48.144;14.118;2023-04-16T04:42:36;5.10;99.90
8332;DHT22;4203;48.144;14.118;2023-04-16T04:45:04;5.00;99.90
8332;DHT22;4203;48.144;14.118;2023-04-16T04:47:32;5.10;99.90
8332;DHT22;4203;48.144;14.118;2023-04-16T04:50:00;5.10;99.90
8332;DHT22;4203;48.144;14.118;2023-04-16T04:52:28;5.00;99.90
8332;DHT22;4203;48.144;14.118;2023-04-16T04:54:55;5.10;99.90
8332;DHT22;4203;48.144;14.118;2023-04-16T04:57:23;5.10;99.90
8332;DHT22;4203;48.144;14.118;2023-04-16T04:59:50;5.10;99.90
8332;DHT22;4203;48.144;14.118;2023-04-16T05:02:17;5.10;99.90
8332;DHT22;4203;48.144;14.118;2023-04-16T05:04:45;5.20;99.90
8332;DHT22;4203;48.144;14.118;2023-04-16T05:07:12;5.20;99.90
8332;DHT22;4203;48.144;14.118;2023-04-16T05:09:39;5.20;99.90
8332;DHT22;4203;48.144;14.118;2023-04-16T05:12:07;5.20;99.90
8332;DHT22;4203;48.144;14.118;2023-04-16T05:14:34;5.20;99.90
8332;DHT22;4203;48.144;14.118;2023-04-16T05:17:02;5.30;99.90
8332;DHT22;4203;48.144;14.118;2023-04-16T05:19:29;5.30;99.90
8332;DHT22;4203;48.144;14.118;2023-04-16T05:21:58;5.30;99.90
8332;DHT22;4203;48.144;14.118;2023-04-16T05:24:26;5.30;99.90
8332;DHT22;4203;48.144;14.118;2023-04-16T05:26:54;5.30;99.90
8332;DHT22;4203;48.144;14.118;2023-04-16T05:29:22;5.30;99.90
8332;DHT22;4203;48.144;14.118;2023-04-16T05:31:49;5.40;99.90
8332;DHT22;4203;48.144;14.118;2023-04-16T05:34:17;5.40;99.90
8332;DHT22;4203;48.144;14.118;2023-04-16T05:36:44;5.40;99.90
8332;DHT22;4203;48.144;14.118;2023-04-16T05:39:13;5.40;99.90
8332;DHT22;4203;48.144;14.118;2023-04-16T05:41:40;5.40;99.90
8332;DHT22;4203;48.144;14.118;2023-04-16T05:44:07;5.40;99.90
8332;DHT22;4203;48.144;14.118;2023-04-16T05:46:34;5.50;99.90
8332;DHT22;4203;48.144;14.118;2023-04-16T05:49:01;5.40;99.90
8332;DHT22;4203;48.144;14.118;2023-04-16T05:51:28;5.50;99.90
8332;DHT22;4203;48.144;14.118;2023-04-16T05:53:56;5.50;99.90
8332;DHT22;4203;48.144;14.118;2023-04-16T05:56:25;5.40;99.90
8332;DHT22;4203;48.144;14.118;2023-04-16T05:58:52;5.50;99.90
8332;DHT22;4203;48.144;14.118;2023-04-16T06:01:21;5.50;99.90
8332;DHT22;4203;48.144;14.118;2023-04-16T06:03:48;5.50;99.90
8332;DHT22;4203;48.144;14.118;2023-04-16T06:06:15;5.50;99.90
8332;DHT22;4203;48.144;14.118;2023-04-16T06:08:42;5.50;99.90
8332;DHT22;4203;48.144;14.118;2023-04-16T06:11:11;5.50;99.90
8332;DHT22;4203;48.144;14.118;2023-04-16T06:13:39;5.50;99.90
8332;DHT22;4203;48.144;14.118;2023-04-16T06:16:07;5.60;99.90
8332;DHT22;4203;48.144;14.118;2023-04-16T06:18:34;5.50;99.90
8332;DHT22;4203;48.144;14.118;2023-04-16T06:21:02;5.50;99.90
8332;DHT22;4203;48.144;14.118;2023-04-16T06:23:29;5.50;99.90
8332;DHT22;4203;48.144;14.118;2023-04-16T06:25:56;5.60;99.90
8332;DHT22;4203;48.144;14.118;2023-04-16T06:28:23;5.60;99.90
8332;DHT22;4203;48.144;14.118;2023-04-16T06:30:52;5.60;99.90
8332;DHT22;4203;48.144;14.118;2023-04-16T06:33:19;5.60;99.90
8332;DHT22;4203;48.144;14.118;2023-04-16T06:35:46;5.60;99.90
8332;DHT22;4203;48.144;14.118;2023-04-16T06:38:14;5.60;99.90
8332;DHT22;4203;48.144;14.118;2023-04-16T06:40:41;5.60;99.90
8332;DHT22;4203;48.144;14.118;2023-04-16T06:43:08;5.60;99.90
8332;DHT22;4203;48.144;14.118;2023-04-16T06:45:35;5.60;99.90
8332;DHT22;4203;48.144;14.118;2023-04-16T06:48:04;5.60;99.90
8332;DHT22;4203;48.144;14.118;2023-04-16T06:50:32;5.70;99.90
8332;DHT22;4203;48.144;14.118;2023-04-16T06:52:59;5.70;99.90
8332;DHT22;4203;48.144;14.118;2023-04-16T06:55:26;5.70;99.90
8332;DHT22;4203;48.144;14.118;2023-04-16T06:57:53;5.70;99.90
8332;DHT22;4203;48.144;14.118;2023-04-16T07:00:21;5.80;99.90
8332;DHT22;4203;48.144;14.118;2023-04-16T07:02:48;5.80;99.90
8332;DHT22;4203;48.144;14.118;2023-04-16T07:05:17;5.80;99.90
8332;DHT22;4203;48.144;14.118;2023-04-16T07:07:44;5.90;99.90
8332;DHT22;4203;48.144;14.118;2023-04-16T07:10:11;6.00;99.90
8332;DHT22;4203;48.144;14.118;2023-04-16T07:12:38;6.10;99.90
8332;DHT22;4203;48.144;14.118;2023-04-16T07:15:06;6.10;99.90
8332;DHT22;4203;48.144;14.118;2023-04-16T07:17:34;6.10;99.90
8332;DHT22;4203;48.144;14.118;2023-04-16T07:20:01;6.30;99.90
8332;DHT22;4203;48.144;14.118;2023-04-16T07:22:29;6.40;99.90
8332;DHT22;4203;48.144;14.118;2023-04-16T07:24:56;6.60;99.90
8332;DHT22;4203;48.144;14.118;2023-04-16T07:27:24;6.70;99.90
8332;DHT22;4203;48.144;14.118;2023-04-16T07:29:51;6.80;99.90
8332;DHT22;4203;48.144;14.118;2023-04-16T07:32:21;6.80;99.90
8332;DHT22;4203;48.144;14.118;2023-04-16T07:34:48;6.80;99.90
8332;DHT22;4203;48.144;14.118;2023-04-16T07:37:15;6.90;99.90
8332;DHT22;4203;48.144;14.118;2023-04-16T07:39:44;7.00;99.90
8332;DHT22;4203;48.144;14.118;2023-04-16T07:42:12;7.10;99.90
8332;DHT22;4203;48.144;14.118;2023-04-16T07:44:39;7.20;99.90
8332;DHT22;4203;48.144;14.118;2023-04-16T07:47:06;7.30;99.90
8332;DHT22;4203;48.144;14.118;2023-04-16T07:49:34;7.40;99.90
8332;DHT22;4203;48.144;14.118;2023-04-16T07:52:03;7.50;99.90
8332;DHT22;4203;48.144;14.118;2023-04-16T07:54:30;7.60;99.90
8332;DHT22;4203;48.144;14.118;2023-04-16T07:56:59;7.70;99.90
8332;DHT22;4203;48.144;14.118;2023-04-16T07:59:26;7.90;99.90
8332;DHT22;4203;48.144;14.118;2023-04-16T08:01:53;8.10;99.90
8332;DHT22;4203;48.144;14.118;2023-04-16T08:04:20;8.10;99.90
8332;DHT22;4203;48.144;14.118;2023-04-16T08:06:49;8.00;99.90
8332;DHT22;4203;48.144;14.118;2023-04-16T08:09:17;8.00;99.90
8332;DHT22;4203;48.144;14.118;2023-04-16T08:11:44;7.90;99.90
8332;DHT22;4203;48.144;14.118;2023-04-16T08:14:15;8.00;99.90
8332;DHT22;4203;48.144;14.118;2023-04-16T08:16:42;8.00;99.90
8332;DHT22;4203;48.144;14.118;2023-04-16T08:19:10;8.10;99.90
8332;DHT22;4203;48.144;14.118;2023-04-16T08:21:37;8.00;99.90
8332;DHT22;4203;48.144;14.118;2023-04-16T08:24:05;8.10;99.90
8332;DHT22;4203;48.144;14.118;2023-04-16T08:26:32;8.00;99.90
8332;DHT22;4203;48.144;14.118;2023-04-16T08:28:59;8.10;99.90
8332;DHT22;4203;48.144;14.118;2023-04-16T08:31:28;8.10;99.90
8332;DHT22;4203;48.144;14.118;2023-04-16T08:33:55;8.10;99.90
8332;DHT22;4203;48.144;14.118;2023-04-16T08:36:22;8.00;99.90
8332;DHT22;4203;48.144;14.118;2023-04-16T08:38:49;7.80;99.90
8332;DHT22;4203;48.144;14.118;2023-04-16T08:44:43;7.80;99.90
8332;DHT22;4203;48.144;14.118;2023-04-16T08:47:15;7.80;99.90
8332;DHT22;4203;48.144;14.118;2023-04-16T08:49:43;7.90;99.90
8332;DHT22;4203;48.144;14.118;2023-04-16T08:52:17;8.00;99.90
8332;DHT22;4203;48.144;14.118;2023-04-16T08:54:50;8.20;99.90
8332;DHT22;4203;48.144;14.118;2023-04-16T08:57:19;8.20;99.90
8332;DHT22;4203;48.144;14.118;2023-04-16T08:59:49;8.20;99.90
8332;DHT22;4203;48.144;14.118;2023-04-16T09:02:19;8.10;99.90
8332;DHT22;4203;48.144;14.118;2023-04-16T09:04:47;8.10;99.90
8332;DHT22;4203;48.144;14.118;2023-04-16T09:07:16;8.20;99.90
8332;DHT22;4203;48.144;14.118;2023-04-16T09:09:47;8.30;99.90
8332;DHT22;4203;48.144;14.118;2023-04-16T09:12:16;8.20;99.90
8332;DHT22;4203;48.144;14.118;2023-04-16T09:14:47;8.20;99.90
8332;DHT22;4203;48.144;14.118;2023-04-16T09:17:15;8.20;99.90
8332;DHT22;4203;48.144;14.118;2023-04-16T09:19:44;8.20;99.90
8332;DHT22;4203;48.144;14.118;2023-04-16T09:22:11;8.30;99.90
8332;DHT22;4203;48.144;14.118;2023-04-16T09:24:39;8.50;99.90
8332;DHT22;4203;48.144;14.118;2023-04-16T09:27:07;8.70;99.90
8332;DHT22;4203;48.144;14.118;2023-04-16T09:29:35;8.80;99.90
8332;DHT22;4203;48.144;14.118;2023-04-16T09:32:06;8.70;99.90
8332;DHT22;4203;48.144;14.118;2023-04-16T09:37:32;8.60;99.90
8332;DHT22;4203;48.144;14.118;2023-04-16T09:40:00;8.60;99.90
8332;DHT22;4203;48.144;14.118;2023-04-16T09:42:30;8.60;99.90
8332;DHT22;4203;48.144;14.118;2023-04-16T09:44:58;8.30;99.90
8332;DHT22;4203;48.144;14.118;2023-04-16T09:47:37;8.10;99.90
8332;DHT22;4203;48.144;14.118;2023-04-16T09:50:05;8.10;99.90
8332;DHT22;4203;48.144;14.118;2023-04-16T09:52:35;8.10;99.90
8332;DHT22;4203;48.144;14.118;2023-04-16T09:55:03;8.30;99.90
8332;DHT22;4203;48.144;14.118;2023-04-16T09:57:31;8.40;99.90
8332;DHT22;4203;48.144;14.118;2023-04-16T10:00:01;8.60;99.90
8332;DHT22;4203;48.144;14.118;2023-04-16T10:02:31;8.70;99.90
8332;DHT22;4203;48.144;14.118;2023-04-16T10:05:01;8.70;99.90
8332;DHT22;4203;48.144;14.118;2023-04-16T10:07:30;8.70;99.90
8332;DHT22;4203;48.144;14.118;2023-04-16T10:10:00;8.80;99.90
8332;DHT22;4203;48.144;14.118;2023-04-16T10:12:30;8.90;99.90
8332;DHT22;4203;48.144;14.118;2023-04-16T10:14:58;8.80;99.90
8332;DHT22;4203;48.144;14.118;2023-04-16T10:17:26;8.60;99.90
8332;DHT22;4203;48.144;14.118;2023-04-16T10:19:55;8.60;99.90
8332;DHT22;4203;48.144;14.118;2023-04-16T10:22:24;8.50;99.90
8332;DHT22;4203;48.144;14.118;2023-04-16T10:24:52;8.30;99.90
8332;DHT22;4203;48.144;14.118;2023-04-16T10:27:21;8.10;99.90
8332;DHT22;4203;48.144;14.118;2023-04-16T10:29:49;8.10;99.90
8332;DHT22;4203;48.144;14.118;2023-04-16T10:32:17;8.10;99.90
8332;DHT22;4203;48.144;14.118;2023-04-16T10:34:46;8.00;99.90
8332;DHT22;4203;48.144;14.118;2023-04-16T10:37:14;8.00;99.90
8332;DHT22;4203;48.144;14.118;2023-04-16T10:39:43;8.10;99.90
8332;DHT22;4203;48.144;14.118;2023-04-16T10:42:12;8.10;99.90
8332;DHT22;4203;48.144;14.118;2023-04-16T10:44:40;8.20;99.90
8332;DHT22;4203;48.144;14.118;2023-04-16T10:47:12;8.30;99.90
8332;DHT22;4203;48.144;14.118;2023-04-16T10:49:39;8.30;99.90
8332;DHT22;4203;48.144;14.118;2023-04-16T10:52:09;8.30;99.90
8332;DHT22;4203;48.144;14.118;2023-04-16T10:54:36;8.30;99.90
8332;DHT22;4203;48.144;14.118;2023-04-16T10:57:06;8.30;99.90
8332;DHT22;4203;48.144;14.118;2023-04-16T10:59:35;8.40;99.90
8332;DHT22;4203;48.144;14.118;2023-04-16T11:02:07;8.40;99.90
8332;DHT22;4203;48.144;14.118;2023-04-16T11:04:38;8.60;99.90
8332;DHT22;4203;48.144;14.118;2023-04-16T11:07:13;8.70;99.90
8332;DHT22;4203;48.144;14.118;2023-04-16T11:09:51;8.80;99.90
8332;DHT22;4203;48.144;14.118;2023-04-16T11:12:19;8.90;99.90
8332;DHT22;4203;48.144;14.118;2023-04-16T11:14:48;9.00;99.90
8332;DHT22;4203;48.144;14.118;2023-04-16T11:17:18;9.00;99.90
8332;DHT22;4203;48.144;14.118;2023-04-16T11:19:45;9.00;99.90
8332;DHT22;4203;48.144;14.118;2023-04-16T11:22:15;8.80;99.90
8332;DHT22;4203;48.144;14.118;2023-04-16T11:24:43;8.70;99.90
8332;DHT22;4203;48.144;14.118;2023-04-16T11:27:12;8.60;99.90
8332;DHT22;4203;48.144;14.118;2023-04-16T11:29:40;8.60;99.90
8332;DHT22;4203;48.144;14.118;2023-04-16T11:32:09;8.60;99.90
8332;DHT22;4203;48.144;14.118;2023-04-16T11:34:45;8.70;99.90
8332;DHT22;4203;48.144;14.118;2023-04-16T11:37:12;8.70;99.90
8332;DHT22;4203;48.144;14.118;2023-04-16T11:39:49;8.70;99.90
8332;DHT22;4203;48.144;14.118;2023-04-16T11:42:21;8.60;99.90
8332;DHT22;4203;48.144;14.118;2023-04-16T11:44:52;8.50;99.90
8332;DHT22;4203;48.144;14.118;2023-04-16T11:47:21;8.40;99.90
8332;DHT22;4203;48.144;14.118;2023-04-16T11:49:49;8.40;99.90
8332;DHT22;4203;48.144;14.118;2023-04-16T11:52:27;8.40;99.90
8332;DHT22;4203;48.144;14.118;2023-04-16T11:54:55;8.50;99.90
8332;DHT22;4203;48.144;14.118;2023-04-16T11:57:27;8.50;99.90
8332;DHT22;4203;48.144;14.118;2023-04-16T11:59:55;8.60;99.90
8332;DHT22;4203;48.144;14.118;2023-04-16T12:02:38;8.50;99.90
8332;DHT22;4203;48.144;14.118;2023-04-16T12:05:26;8.50;99.90
8332;DHT22;4203;48.144;14.118;2023-04-16T12:07:55;8.50;99.90
8332;DHT22;4203;48.144;14.118;2023-04-16T12:10:23;8.60;99.90
8332;DHT22;4203;48.144;14.118;2023-04-16T12:12:50;8.60;99.90
8332;DHT22;4203;48.144;14.118;2023-04-16T12:15:18;8.60;99.90
8332;DHT22;4203;48.144;14.118;2023-04-16T12:17:45;8.50;99.90
8332;DHT22;4203;48.144;14.118;2023-04-16T12:20:13;8.50;99.90
8332;DHT22;4203;48.144;14.118;2023-04-16T12:22:46;8.50;99.90
8332;DHT22;4203;48.144;14.118;2023-04-16T12:25:15;8.50;99.90
8332;DHT22;4203;48.144;14.118;2023-04-16T12:27:43;8.60;99.90
8332;DHT22;4203;48.144;14.118;2023-04-16T12:30:23;8.50;99.90
8332;DHT22;4203;48.144;14.118;2023-04-16T12:32:53;8.50;99.90
8332;DHT22;4203;48.144;14.118;2023-04-16T12:35:40;8.40;99.90
8332;DHT22;4203;48.144;14.118;2023-04-16T12:38:09;8.40;99.90
8332;DHT22;4203;48.144;14.118;2023-04-16T12:40:39;8.50;99.90
8332;DHT22;4203;48.144;14.118;2023-04-16T12:43:07;8.50;99.90
8332;DHT22;4203;48.144;14.118;2023-04-16T12:45:35;8.50;99.90
8332;DHT22;4203;48.144;14.118;2023-04-16T12:48:02;8.50;99.90
8332;DHT22;4203;48.144;14.118;2023-04-16T12:50:29;8.60;99.90
8332;DHT22;4203;48.144;14.118;2023-04-16T12:52:58;8.60;99.90
8332;DHT22;4203;48.144;14.118;2023-04-16T12:55:27;8.70;99.90
8332;DHT22;4203;48.144;14.118;2023-04-16T12:57:54;8.70;99.90
8332;DHT22;4203;48.144;14.118;2023-04-16T13:00:21;8.70;99.90
8332;DHT22;4203;48.144;14.118;2023-04-16T13:02:48;8.80;99.90
8332;DHT22;4203;48.144;14.118;2023-04-16T13:05:16;8.80;99.90
8332;DHT22;4203;48.144;14.118;2023-04-16T13:07:43;8.90;99.90
8332;DHT22;4203;48.144;14.118;2023-04-16T13:10:11;9.00;99.90
8332;DHT22;4203;48.144;14.118;2023-04-16T13:12:44;9.10;99.90
8332;DHT22;4203;48.144;14.118;2023-04-16T13:15:11;9.30;99.90
8332;DHT22;4203;48.144;14.118;2023-04-16T15:22:06;10.90;99.90
8332;DHT22;4203;48.144;14.118;2023-04-16T15:24:33;10.80;99.90
8332;DHT22;4203;48.144;14.118;2023-04-16T15:27:01;10.60;99.90
8332;DHT22;4203;48.144;14.118;2023-04-16T15:29:28;10.60;99.90
8332;DHT22;4203;48.144;14.118;2023-04-16T15:31:56;10.50;99.90
8332;DHT22;4203;48.144;14.118;2023-04-16T15:37:11;10.30;99.90
8332;DHT22;4203;48.144;14.118;2023-04-16T15:39:47;10.40;99.90
8332;DHT22;4203;48.144;14.118;2023-04-16T15:42:23;10.30;99.90
8332;DHT22;4203;48.144;14.118;2023-04-16T15:44:52;10.30;99.90
8332;DHT22;4203;48.144;14.118;2023-04-16T15:47:26;10.20;99.90
8332;DHT22;4203;48.144;14.118;2023-04-16T15:49:55;10.10;99.90
8332;DHT22;4203;48.144;14.118;2023-04-16T15:52:27;9.90;99.90
8332;DHT22;4203;48.144;14.118;2023-04-16T15:54:56;9.80;99.90
8332;DHT22;4203;48.144;14.118;2023-04-16T15:57:25;9.80;99.90
8332;DHT22;4203;48.144;14.118;2023-04-16T15:59:55;9.70;99.90
8332;DHT22;4203;48.144;14.118;2023-04-16T16:02:24;9.60;99.90
8332;DHT22;4203;48.144;14.118;2023-04-16T16:04:57;9.70;99.90
8332;DHT22;4203;48.144;14.118;2023-04-16T16:07:28;9.70;99.90
8332;DHT22;4203;48.144;14.118;2023-04-16T16:09:58;9.70;99.90
8332;DHT22;4203;48.144;14.118;2023-04-16T16:12:33;9.70;99.90
8332;DHT22;4203;48.144;14.118;2023-04-16T16:15:08;9.60;99.90
8332;DHT22;4203;48.144;14.118;2023-04-16T16:17:44;9.60;99.90
8332;DHT22;4203;48.144;14.118;2023-04-16T16:20:15;9.50;99.90
8332;DHT22;4203;48.144;14.118;2023-04-16T16:22:51;9.50;99.90
8332;DHT22;4203;48.144;14.118;2023-04-16T16:25:20;9.50;99.90
8332;DHT22;4203;48.144;14.118;2023-04-16T16:27:49;9.40;99.90
8332;DHT22;4203;48.144;14.118;2023-04-16T16:30:18;9.30;99.90
8332;DHT22;4203;48.144;14.118;2023-04-16T16:32:52;9.20;99.90
8332;DHT22;4203;48.144;14.118;2023-04-16T16:35:23;9.10;99.90
8332;DHT22;4203;48.144;14.118;2023-04-16T16:37:55;9.00;99.90
8332;DHT22;4203;48.144;14.118;2023-04-16T16:40:28;8.90;99.90
8332;DHT22;4203;48.144;14.118;2023-04-16T16:42:58;8.90;99.90
8332;DHT22;4203;48.144;14.118;2023-04-16T16:45:29;8.80;99.90
8332;DHT22;4203;48.144;14.118;2023-04-16T16:47:59;8.70;99.90
8332;DHT22;4203;48.144;14.118;2023-04-16T16:50:31;8.60;99.90
8332;DHT22;4203;48.144;14.118;2023-04-16T16:53:04;8.50;99.90
8332;DHT22;4203;48.144;14.118;2023-04-16T16:55:33;8.40;99.90
8332;DHT22;4203;48.144;14.118;2023-04-16T16:58:04;8.40;99.90
8332;DHT22;4203;48.144;14.118;2023-04-16T17:00:36;8.30;99.90
8332;DHT22;4203;48.144;14.118;2023-04-16T17:03:06;8.30;99.90
8332;DHT22;4203;48.144;14.118;2023-04-16T17:05:36;8.30;99.90
8332;DHT22;4203;48.144;14.118;2023-04-16T17:08:06;8.30;99.90
8332;DHT22;4203;48.144;14.118;2023-04-16T17:10:35;8.30;99.90
8332;DHT22;4203;48.144;14.118;2023-04-16T17:13:05;8.30;99.90
8332;DHT22;4203;48.144;14.118;2023-04-16T17:15:36;8.30;99.90
8332;DHT22;4203;48.144;14.118;2023-04-16T17:18:06;8.30;99.90
8332;DHT22;4203;48.144;14.118;2023-04-16T17:20:38;8.20;99.90
8332;DHT22;4203;48.144;14.118;2023-04-16T17:23:08;8.30;99.90
8332;DHT22;4203;48.144;14.118;2023-04-16T17:25:37;8.20;99.90
8332;DHT22;4203;48.144;14.118;2023-04-16T17:28:07;8.20;99.90
8332;DHT22;4203;48.144;14.118;2023-04-16T17:30:38;8.20;99.90
8332;DHT22;4203;48.144;14.118;2023-04-16T17:33:08;8.20;99.90
8332;DHT22;4203;48.144;14.118;2023-04-16T17:35:39;8.10;99.90
8332;DHT22;4203;48.144;14.118;2023-04-16T17:38:16;8.10;99.90
8332;DHT22;4203;48.144;14.118;2023-04-16T17:40:48;8.10;99.90
8332;DHT22;4203;48.144;14.118;2023-04-16T17:43:16;8.00;99.90
8332;DHT22;4203;48.144;14.118;2023-04-16T17:45:45;8.00;99.90
8332;DHT22;4203;48.144;14.118;2023-04-16T17:48:14;8.00;99.90
8332;DHT22;4203;48.144;14.118;2023-04-16T17:50:43;8.00;99.90
8332;DHT22;4203;48.144;14.118;2023-04-16T17:53:15;8.00;99.90
8332;DHT22;4203;48.144;14.118;2023-04-16T17:55:54;7.90;99.90
8332;DHT22;4203;48.144;14.118;2023-04-16T17:58:23;7.90;99.90
8332;DHT22;4203;48.144;14.118;2023-04-16T18:00:54;10.10;99.90
8332;DHT22;4203;48.144;14.118;2023-04-16T18:03:25;7.90;99.90
8332;DHT22;4203;48.144;14.118;2023-04-16T18:05:56;7.80;99.90
8332;DHT22;4203;48.144;14.118;2023-04-16T18:08:34;7.80;99.90
8332;DHT22;4203;48.144;14.118;2023-04-16T18:11:06;7.80;99.90
8332;DHT22;4203;48.144;14.118;2023-04-16T18:13:35;9.20;99.90
8332;DHT22;4203;48.144;14.118;2023-04-16T18:16:13;7.70;99.90
8332;DHT22;4203;48.144;14.118;2023-04-16T18:18:43;7.70;99.90
8332;DHT22;4203;48.144;14.118;2023-04-16T18:21:21;7.60;99.90
8332;DHT22;4203;48.144;14.118;2023-04-16T18:23:53;7.60;99.90
8332;DHT22;4203;48.144;14.118;2023-04-16T18:26:23;7.50;99.90